createdAt,value
2018-07-31T00:00:00.156Z,1
2018-07-31T00:05:03.299Z,1
2018-07-31T00:10:00.225Z,2
2018-07-31T00:15:00.181Z,1
2018-07-31T00:20:00.608Z,2
2018-07-31T00:25:10.291Z,2
2018-07-31T00:30:00.699Z,2
2018-07-31T00:35:00.377Z,5
2018-07-31T00:40:00.569Z,4
2018-07-31T00:45:00.222Z,3
2018-07-31T00:50:00.225Z,2
2018-07-31T00:55:00.777Z,1
2018-07-31T01:00:00.332Z,2
2018-07-31T01:05:00.987Z,2
2018-07-31T01:10:00.662Z,1
2018-07-31T01:15:00.525Z,1
2018-07-31T01:20:00.243Z,2
2018-07-31T01:25:00.275Z,1
2018-07-31T01:30:00.712Z,2
2018-07-31T01:35:00.467Z,2
2018-07-31T01:40:00.245Z,2
2018-07-31T01:45:00.344Z,5
2018-07-31T01:50:00.438Z,2
2018-07-31T01:55:09.492Z,3
2018-07-31T02:00:00.892Z,5
2018-07-31T02:05:03.554Z,5
2018-07-31T02:10:01.067Z,1
2018-07-31T02:15:00.542Z,0
2018-07-31T02:19:59.772Z,1
2018-07-31T02:25:00.169Z,2
2018-07-31T02:29:59.786Z,2
2018-07-31T02:34:59.976Z,2
2018-07-31T02:39:59.817Z,2
2018-07-31T02:44:59.928Z,2
2018-07-31T02:49:59.862Z,4
2018-07-31T02:54:59.954Z,3
2018-07-31T02:59:59.868Z,3
2018-07-31T03:04:59.954Z,3
2018-07-31T03:09:59.905Z,2
2018-07-31T03:14:59.933Z,4
2018-07-31T03:20:00.055Z,3
2018-07-31T03:24:59.912Z,3
2018-07-31T03:29:59.762Z,3
2018-07-31T03:35:00.187Z,4
2018-07-31T03:39:59.812Z,2
2018-07-31T03:44:59.908Z,1
2018-07-31T03:50:00.061Z,2
2018-07-31T03:55:00.063Z,2
2018-07-31T03:59:59.872Z,1
2018-07-31T04:04:59.658Z,3
2018-07-31T04:09:59.666Z,2
2018-07-31T04:14:59.911Z,3
2018-07-31T04:19:59.905Z,1
2018-07-31T04:24:59.860Z,2
2018-07-31T04:30:00.059Z,3
2018-07-31T04:34:59.873Z,3
2018-07-31T04:39:59.676Z,2
2018-07-31T04:45:00.165Z,2
2018-07-31T04:49:59.848Z,5
2018-07-31T04:54:59.802Z,4
2018-07-31T04:59:59.584Z,2
2018-07-31T05:04:59.752Z,5
2018-07-31T05:09:59.848Z,2
2018-07-31T05:14:59.685Z,2
2018-07-31T05:19:59.723Z,3
2018-07-31T05:24:59.529Z,6
2018-07-31T05:29:59.557Z,5
2018-07-31T05:34:59.776Z,4
2018-07-31T05:39:59.404Z,5
2018-07-31T05:44:59.527Z,4
2018-07-31T05:49:59.748Z,3
2018-07-31T05:54:59.579Z,3
2018-07-31T05:59:59.767Z,7
2018-07-31T06:04:59.460Z,5
2018-07-31T06:09:59.598Z,5
2018-07-31T06:14:59.671Z,4
2018-07-31T06:19:59.738Z,5
2018-07-31T06:24:59.507Z,8
2018-07-31T06:29:59.639Z,4
2018-07-31T06:34:59.559Z,3
2018-07-31T06:39:59.499Z,4
2018-07-31T06:44:59.565Z,3
2018-07-31T06:49:59.376Z,5
2018-07-31T06:54:59.422Z,5
2018-07-31T06:59:59.500Z,3
2018-07-31T07:04:59.366Z,6
2018-07-31T07:09:59.583Z,6
2018-07-31T07:14:59.547Z,7
2018-07-31T07:19:59.606Z,7
2018-07-31T07:24:59.348Z,12
2018-07-31T07:29:59.300Z,10
2018-07-31T07:34:59.396Z,14
2018-07-31T07:39:59.308Z,14
2018-07-31T07:44:59.574Z,16
2018-07-31T07:49:59.598Z,15
2018-07-31T07:54:59.593Z,16
2018-07-31T07:59:59.291Z,19
2018-07-31T08:04:59.508Z,14
2018-07-31T08:09:59.466Z,16
2018-07-31T08:14:59.339Z,17
2018-07-31T08:19:59.374Z,21
2018-07-31T08:24:59.522Z,19
2018-07-31T08:30:00.280Z,15
2018-07-31T08:35:00.150Z,17
2018-07-31T08:39:59.783Z,12
2018-07-31T08:47:37.913Z,14
2018-07-31T08:50:00.888Z,15
2018-07-31T08:54:59.564Z,13
2018-07-31T08:59:59.381Z,10
2018-07-31T09:04:59.320Z,6
2018-07-31T09:09:59.409Z,7
2018-07-31T09:14:59.268Z,6
2018-07-31T09:19:59.217Z,7
2018-07-31T09:24:59.438Z,6
2018-07-31T09:29:59.332Z,7
2018-07-31T09:34:59.298Z,10
2018-07-31T09:39:59.279Z,8
2018-07-31T09:44:59.098Z,5
2018-07-31T09:49:59.213Z,5
2018-07-31T09:55:00.538Z,4
2018-07-31T09:59:59.191Z,4
2018-07-31T10:04:59.207Z,4
2018-07-31T10:09:59.124Z,3
2018-07-31T10:14:59.820Z,1
2018-07-31T10:19:59.674Z,5
2018-07-31T10:25:15.450Z,3
2018-07-31T10:29:59.628Z,5
2018-07-31T10:34:59.213Z,3
2018-07-31T10:39:59.455Z,6
2018-07-31T10:44:59.399Z,10
2018-07-31T10:50:02.662Z,10
2018-07-31T10:55:00.872Z,13
2018-07-31T10:59:59.240Z,10
2018-07-31T11:04:59.304Z,14
2018-07-31T11:09:59.548Z,14
2018-07-31T11:14:59.210Z,14
2018-07-31T11:19:59.944Z,6
2018-07-31T11:24:59.620Z,5
2018-07-31T11:30:02.958Z,6
2018-07-31T11:35:00.161Z,6
2018-07-31T11:39:59.695Z,5
2018-07-31T11:44:59.249Z,4
2018-07-31T11:50:03.546Z,2
2018-07-31T11:55:00.310Z,4
2018-07-31T11:59:59.569Z,4
2018-07-31T12:04:59.337Z,4
2018-07-31T12:09:59.106Z,3
2018-07-31T12:14:59.244Z,4
2018-07-31T12:19:59.053Z,4
2018-07-31T12:25:00.199Z,4
2018-07-31T12:30:03.272Z,3
2018-07-31T12:35:05.383Z,6
2018-07-31T12:39:59.041Z,3
2018-07-31T12:44:59.673Z,5
2018-07-31T12:49:59.494Z,3
2018-07-31T12:54:59.723Z,4
2018-07-31T12:59:59.991Z,4
2018-07-31T13:04:59.645Z,7
2018-07-31T13:10:03.526Z,4
2018-07-31T13:14:59.178Z,5
2018-07-31T13:19:59.128Z,4
2018-07-31T13:24:59.344Z,3
2018-07-31T13:29:59.357Z,3
2018-07-31T13:34:59.388Z,2
2018-07-31T13:39:59.063Z,4
2018-07-31T13:45:02.128Z,1
2018-07-31T13:49:59.814Z,1
2018-07-31T13:54:59.137Z,4
2018-07-31T13:59:58.985Z,2
2018-07-31T14:04:59.078Z,2
2018-07-31T14:09:59.517Z,3
2018-07-31T14:14:59.303Z,2
2018-07-31T14:19:59.224Z,3
2018-07-31T14:24:59.348Z,5
2018-07-31T14:29:59.223Z,1
2018-07-31T14:34:59.129Z,2
2018-07-31T14:39:59.313Z,1
2018-07-31T14:55:07.819Z,2
2018-07-31T15:00:02.116Z,1
2018-07-31T15:05:02.064Z,2
2018-07-31T15:10:02.218Z,2
2018-07-31T15:15:01.913Z,1
2018-07-31T15:20:02.353Z,2
2018-07-31T15:25:01.926Z,2
2018-07-31T15:30:02.313Z,0
2018-07-31T15:35:02.148Z,0
2018-07-31T15:40:02.041Z,0
2018-07-31T15:45:02.899Z,1
2018-07-31T15:50:02.139Z,1
2018-07-31T15:55:02.219Z,1
2018-07-31T16:00:02.227Z,2
2018-07-31T16:05:02.160Z,0
2018-07-31T16:10:02.191Z,0
2018-07-31T16:15:01.892Z,0
2018-07-31T16:20:02.102Z,0
2018-07-31T16:25:01.899Z,1
2018-07-31T16:30:02.065Z,3
2018-07-31T16:35:02.221Z,0
2018-07-31T16:40:02.189Z,0
2018-07-31T16:45:02.393Z,1
2018-07-31T16:50:01.886Z,0
2018-07-31T16:55:02.248Z,3
2018-07-31T17:00:02.007Z,0
2018-07-31T17:05:02.165Z,0
2018-07-31T17:10:01.749Z,0
2018-07-31T17:15:02.421Z,1
2018-07-31T17:20:01.758Z,1
2018-07-31T17:25:01.921Z,1
2018-07-31T17:30:01.966Z,4
2018-07-31T17:35:02.076Z,2
2018-07-31T17:40:01.922Z,0
2018-07-31T17:45:29.701Z,1
2018-07-31T17:50:01.911Z,1
2018-07-31T17:55:02.063Z,2
2018-07-31T18:00:01.756Z,5
2018-07-31T18:05:01.659Z,2
2018-07-31T18:10:01.898Z,0
2018-07-31T18:15:01.799Z,3
2018-07-31T18:20:01.909Z,2
2018-07-31T18:25:01.671Z,2
2018-07-31T18:30:01.908Z,3
2018-07-31T18:35:02.020Z,2
2018-07-31T18:40:01.938Z,2
2018-07-31T18:45:01.666Z,1
2018-07-31T18:50:01.573Z,4
2018-07-31T18:55:01.667Z,0
2018-07-31T19:00:01.711Z,4
2018-07-31T19:05:01.724Z,1
2018-07-31T19:10:01.920Z,2
2018-07-31T19:15:01.519Z,1
2018-07-31T19:20:01.885Z,1
2018-07-31T19:25:01.667Z,1
2018-07-31T19:30:01.511Z,3
2018-07-31T19:35:01.863Z,4
2018-07-31T19:40:01.702Z,2
2018-07-31T19:45:01.588Z,2
2018-07-31T19:50:01.594Z,4
2018-07-31T19:55:01.795Z,3
2018-07-31T20:00:01.685Z,4
2018-07-31T20:05:01.549Z,3
2018-07-31T20:10:01.613Z,3
2018-07-31T20:15:01.780Z,2
2018-07-31T20:20:01.775Z,2
2018-07-31T20:25:01.394Z,3
2018-07-31T20:30:01.841Z,2
2018-07-31T20:35:01.505Z,3
2018-07-31T20:40:01.590Z,5
2018-07-31T20:45:06.527Z,3
2018-07-31T20:50:01.532Z,4
2018-07-31T20:55:01.770Z,2
2018-07-31T21:00:03.621Z,3
2018-07-31T21:05:01.468Z,2
2018-07-31T21:10:01.562Z,4
2018-07-31T21:15:01.586Z,7
2018-07-31T21:20:01.708Z,3
2018-07-31T21:25:01.684Z,3
2018-07-31T21:30:01.548Z,3
2018-07-31T21:35:01.469Z,3
2018-07-31T21:40:01.605Z,7
2018-07-31T21:45:01.576Z,5
2018-07-31T21:50:01.346Z,4
2018-07-31T21:55:01.660Z,4
2018-07-31T22:00:01.252Z,5
2018-07-31T22:05:01.277Z,5
2018-07-31T22:10:01.431Z,6
2018-07-31T22:15:01.607Z,7
2018-07-31T22:20:01.516Z,3
2018-07-31T22:25:01.547Z,4
2018-07-31T22:30:01.645Z,6
2018-07-31T22:35:01.605Z,5
2018-07-31T22:40:01.297Z,2
2018-07-31T22:45:01.440Z,3
2018-07-31T22:50:01.584Z,3
2018-07-31T22:55:01.228Z,4
2018-07-31T23:00:01.258Z,4
2018-07-31T23:05:01.520Z,9
2018-07-31T23:10:01.394Z,4
2018-07-31T23:15:01.459Z,5
2018-07-31T23:20:01.531Z,5
2018-07-31T23:25:01.309Z,3
2018-07-31T23:30:01.366Z,8
2018-07-31T23:35:01.294Z,5
2018-07-31T23:40:01.259Z,4
2018-07-31T23:45:01.426Z,6
2018-07-31T23:50:01.378Z,5
2018-07-31T23:55:01.583Z,6
